createdAt,value
2022-11-19T00:01:54.518Z,12.74
2022-11-19T00:04:27.421Z,12.68
2022-11-19T00:07:03.115Z,12.76
2022-11-19T00:09:37.377Z,12.81
2022-11-19T00:12:30.527Z,12.72
2022-11-19T00:15:03.660Z,12.69
2022-11-19T00:17:37.018Z,12.60
2022-11-19T00:20:10.587Z,12.61
2022-11-19T00:22:45.517Z,12.66
2022-11-19T00:25:18.401Z,12.62
2022-11-19T00:27:51.356Z,12.68
2022-11-19T00:30:47.031Z,12.76
2022-11-19T00:33:17.220Z,12.72
2022-11-19T00:35:50.318Z,12.66
2022-11-19T00:38:24.745Z,12.64
2022-11-19T00:40:57.878Z,12.57
2022-11-19T00:43:49.888Z,12.39
2022-11-19T00:46:25.365Z,12.49
2022-11-19T00:49:00.490Z,12.55
2022-11-19T00:51:33.258Z,12.51
2022-11-19T00:54:08.010Z,12.48
2022-11-19T00:56:41.081Z,12.40
2022-11-19T00:59:16.579Z,12.36
2022-11-19T01:01:49.938Z,12.33
2022-11-19T01:04:22.992Z,12.31
2022-11-19T01:06:56.299Z,12.36
2022-11-19T01:09:31.561Z,12.40
2022-11-19T01:12:04.721Z,12.33
2022-11-19T01:14:40.248Z,12.28
2022-11-19T01:17:15.088Z,12.35
2022-11-19T01:19:48.147Z,12.32
2022-11-19T01:22:21.056Z,12.32
2022-11-19T01:24:55.490Z,12.32
2022-11-19T01:27:28.382Z,12.23
2022-11-19T01:30:01.594Z,12.16
2022-11-19T01:32:34.832Z,12.09
2022-11-19T01:35:08.784Z,12.12
2022-11-19T01:37:41.982Z,12.11
2022-11-19T01:40:16.835Z,12.08
2022-11-19T01:42:53.928Z,12.03
2022-11-19T01:45:31.914Z,12.06
2022-11-19T01:48:09.828Z,11.97
2022-11-19T01:50:45.988Z,11.98
2022-11-19T01:53:21.703Z,12.00
2022-11-19T01:55:57.426Z,11.93
2022-11-19T01:58:31.774Z,11.92
2022-11-19T02:01:05.649Z,11.86
2022-11-19T02:03:39.828Z,11.77
2022-11-19T02:06:13.711Z,11.88
2022-11-19T02:08:50.134Z,11.84
2022-11-19T02:11:39.031Z,11.80
2022-11-19T02:14:42.888Z,11.89
2022-11-19T02:17:21.418Z,11.83
2022-11-19T02:20:22.101Z,11.83
2022-11-19T02:23:18.810Z,11.73
2022-11-19T02:26:24.668Z,11.62
2022-11-19T02:29:09.519Z,11.71
2022-11-19T02:31:52.836Z,11.58
2022-11-19T02:34:30.384Z,11.63
2022-11-19T02:37:10.241Z,11.57
2022-11-19T02:39:49.169Z,11.59
2022-11-19T02:42:29.376Z,11.53
2022-11-19T02:45:11.276Z,11.58
2022-11-19T02:47:50.071Z,11.57
2022-11-19T02:50:26.668Z,11.54
2022-11-19T02:53:04.621Z,11.49
2022-11-19T02:55:40.574Z,11.58
2022-11-19T02:58:37.908Z,11.59
2022-11-19T03:01:28.477Z,11.48
2022-11-19T03:04:20.596Z,11.52
2022-11-19T03:06:54.779Z,11.39
2022-11-19T03:09:28.714Z,11.42
2022-11-19T03:12:10.298Z,11.51
2022-11-19T03:15:13.671Z,11.43
2022-11-19T03:18:01.520Z,11.28
2022-11-19T03:20:40.702Z,11.30
2022-11-19T03:23:21.153Z,11.33
2022-11-19T03:25:58.913Z,11.25
2022-11-19T03:28:37.094Z,11.29
2022-11-19T03:31:11.912Z,11.23
2022-11-19T03:33:48.871Z,11.12
2022-11-19T03:36:28.610Z,11.10
2022-11-19T03:39:05.653Z,11.18
2022-11-19T03:41:41.952Z,11.25
2022-11-19T03:44:19.413Z,11.18
2022-11-19T03:46:55.791Z,11.11
2022-11-19T03:49:36.116Z,11.16
2022-11-19T03:52:13.183Z,11.16
2022-11-19T03:54:46.950Z,11.18
2022-11-19T03:57:22.136Z,11.14
2022-11-19T03:59:54.976Z,11.15
2022-11-19T04:02:27.809Z,11.14
2022-11-19T04:05:00.680Z,11.17
2022-11-19T04:07:34.980Z,11.01
2022-11-19T04:10:08.442Z,11.11
2022-11-19T04:12:41.228Z,11.06
2022-11-19T04:15:15.549Z,11.08
2022-11-19T04:17:48.404Z,11.06
2022-11-19T04:20:21.323Z,11.04
2022-11-19T04:22:55.560Z,10.95
2022-11-19T04:25:28.595Z,10.99
2022-11-19T04:28:02.243Z,10.97
2022-11-19T04:30:34.970Z,10.88
2022-11-19T04:33:08.013Z,10.87
2022-11-19T04:35:40.638Z,10.81
2022-11-19T04:38:14.811Z,10.82
2022-11-19T04:40:48.868Z,10.69
2022-11-19T04:43:22.178Z,10.67
2022-11-19T04:45:55.411Z,10.71
2022-11-19T04:48:28.468Z,10.68
2022-11-19T04:51:01.681Z,10.67
2022-11-19T04:53:36.056Z,10.65
2022-11-19T04:56:09.014Z,10.61
2022-11-19T04:58:41.979Z,10.52
2022-11-19T05:01:14.615Z,10.62
2022-11-19T05:03:48.714Z,10.72
2022-11-19T05:06:21.449Z,10.50
2022-11-19T05:08:55.614Z,10.49
2022-11-19T05:11:28.320Z,10.52
2022-11-19T05:14:01.232Z,10.57
2022-11-19T05:16:34.479Z,10.39
2022-11-19T05:19:07.510Z,10.49
2022-11-19T05:21:40.071Z,10.44
2022-11-19T05:24:14.820Z,10.38
2022-11-19T05:26:47.930Z,10.54
2022-11-19T05:29:20.813Z,10.55
2022-11-19T05:31:53.891Z,10.45
2022-11-19T05:34:28.631Z,10.32
2022-11-19T05:37:01.373Z,10.40
2022-11-19T05:39:36.017Z,10.40
2022-11-19T05:42:08.745Z,10.32
2022-11-19T05:44:41.597Z,10.39
2022-11-19T05:47:16.487Z,10.37
2022-11-19T05:49:49.365Z,10.44
2022-11-19T05:52:22.625Z,10.22
2022-11-19T05:54:57.196Z,10.04
2022-11-19T05:57:30.559Z,10.20
2022-11-19T06:00:03.650Z,10.21
2022-11-19T06:02:49.294Z,10.17
2022-11-19T06:05:22.162Z,10.15
2022-11-19T06:07:55.444Z,10.13
2022-11-19T06:10:33.262Z,10.07
2022-11-19T06:13:06.354Z,10.14
2022-11-19T06:15:39.476Z,10.04
2022-11-19T06:18:13.159Z,9.97
2022-11-19T06:20:46.058Z,10.12
2022-11-19T06:23:21.944Z,10.13
2022-11-19T06:25:57.205Z,10.04
2022-11-19T06:28:32.794Z,10.08
2022-11-19T06:31:07.463Z,9.98
2022-11-19T06:33:40.656Z,9.94
2022-11-19T06:36:16.234Z,9.95
2022-11-19T06:38:49.257Z,9.94
2022-11-19T06:41:23.604Z,9.96
2022-11-19T06:43:56.471Z,9.90
2022-11-19T06:46:29.283Z,9.93
2022-11-19T06:49:03.724Z,10.13
2022-11-19T06:51:37.759Z,10.14
2022-11-19T06:54:11.977Z,9.98
2022-11-19T06:56:47.672Z,9.99
2022-11-19T06:59:22.661Z,9.90
2022-11-19T07:01:55.790Z,9.90
2022-11-19T07:04:29.477Z,9.90
2022-11-19T07:07:02.864Z,9.87
2022-11-19T07:09:36.268Z,9.81
2022-11-19T07:12:11.227Z,9.79
2022-11-19T07:14:45.576Z,9.75
2022-11-19T07:17:18.642Z,9.75
2022-11-19T07:19:52.006Z,9.67
2022-11-19T07:22:25.355Z,9.65
2022-11-19T07:24:58.531Z,9.80
2022-11-19T07:27:34.784Z,9.69
2022-11-19T07:30:09.923Z,9.63
2022-11-19T07:32:43.349Z,9.56
2022-11-19T07:35:16.597Z,9.62
2022-11-19T07:37:49.384Z,9.56
2022-11-19T07:40:22.407Z,9.51
2022-11-19T07:42:55.480Z,9.50
2022-11-19T07:45:28.271Z,9.61
2022-11-19T07:48:01.101Z,9.47
2022-11-19T07:50:33.955Z,9.45
2022-11-19T07:53:06.893Z,9.50
2022-11-19T07:55:40.047Z,9.55
2022-11-19T07:58:14.999Z,9.43
2022-11-19T08:00:47.713Z,9.52
2022-11-19T08:03:20.538Z,9.14
2022-11-19T08:05:53.484Z,9.11
2022-11-19T08:08:26.147Z,9.18
2022-11-19T08:10:59.029Z,9.23
2022-11-19T08:13:33.693Z,9.33
2022-11-19T08:16:08.787Z,9.32
2022-11-19T08:18:40.577Z,9.31
2022-11-19T08:21:13.426Z,9.41
2022-11-19T08:23:46.273Z,9.35
2022-11-19T08:26:19.293Z,9.42
2022-11-19T08:28:54.302Z,9.37
2022-11-19T08:31:27.652Z,9.36
2022-11-19T08:34:02.579Z,9.42
2022-11-19T08:36:35.432Z,9.43
2022-11-19T08:39:08.738Z,9.43
2022-11-19T08:41:59.338Z,9.46
2022-11-19T08:44:33.419Z,9.51
2022-11-19T08:47:06.434Z,9.53
2022-11-19T08:49:39.152Z,9.49
2022-11-19T08:52:11.962Z,9.45
2022-11-19T08:54:44.894Z,9.52
2022-11-19T08:57:18.189Z,9.36
2022-11-19T08:59:52.298Z,9.42
2022-11-19T09:02:25.116Z,9.26
2022-11-19T09:04:58.043Z,9.24
2022-11-19T09:07:30.788Z,9.26
2022-11-19T09:10:03.621Z,9.26
2022-11-19T09:12:36.481Z,9.26
2022-11-19T09:15:12.020Z,9.32
2022-11-19T09:17:46.989Z,9.33
2022-11-19T09:20:20.163Z,9.28
2022-11-19T09:22:52.980Z,9.47
2022-11-19T09:25:25.909Z,9.34
2022-11-19T09:27:59.694Z,9.38
2022-11-19T09:30:33.967Z,9.36
2022-11-19T09:33:06.692Z,9.32
2022-11-19T09:35:39.411Z,9.30
2022-11-19T09:38:12.600Z,9.29
2022-11-19T09:40:46.860Z,9.41
2022-11-19T09:43:28.536Z,9.38
2022-11-19T09:46:11.564Z,9.18
2022-11-19T09:48:45.674Z,9.16
2022-11-19T09:51:22.879Z,9.19
2022-11-19T09:54:01.506Z,9.28
2022-11-19T09:56:37.218Z,9.23
2022-11-19T09:59:26.131Z,9.23
2022-11-19T10:02:00.177Z,9.22
2022-11-19T10:04:34.456Z,9.30
2022-11-19T10:07:21.981Z,9.30
2022-11-19T10:10:12.139Z,9.21
2022-11-19T10:13:11.666Z,9.33
2022-11-19T10:16:00.536Z,9.29
2022-11-19T10:18:45.125Z,9.26
2022-11-19T10:21:26.161Z,9.32
2022-11-19T10:24:08.270Z,9.36
2022-11-19T10:26:42.635Z,9.33
2022-11-19T10:29:21.105Z,9.31
2022-11-19T10:31:54.246Z,9.18
2022-11-19T10:34:29.859Z,9.24
2022-11-19T10:37:07.378Z,9.14
2022-11-19T10:39:44.231Z,9.21
2022-11-19T10:42:22.838Z,9.26
2022-11-19T10:45:00.286Z,9.16
2022-11-19T10:47:38.468Z,9.10
2022-11-19T10:50:19.621Z,9.05
2022-11-19T10:52:55.278Z,9.10
2022-11-19T10:55:34.876Z,9.21
2022-11-19T10:58:13.683Z,9.11
2022-11-19T11:00:47.111Z,9.18
2022-11-19T11:03:24.940Z,9.23
2022-11-19T11:06:05.166Z,9.12
2022-11-19T11:08:49.363Z,9.21
2022-11-19T11:11:47.185Z,9.22
2022-11-19T11:14:42.417Z,9.16
2022-11-19T11:17:20.772Z,9.12
2022-11-19T11:20:00.942Z,9.23
2022-11-19T11:22:36.866Z,9.22
2022-11-19T11:25:20.870Z,9.36
2022-11-19T11:28:06.966Z,9.36
2022-11-19T11:30:52.773Z,9.35
2022-11-19T11:33:31.834Z,9.24
2022-11-19T11:36:08.243Z,9.28
2022-11-19T11:38:45.153Z,9.38
2022-11-19T11:44:19.736Z,9.24
2022-11-19T11:46:55.425Z,9.18
2022-11-19T11:49:31.773Z,9.10
2022-11-19T11:52:19.338Z,9.12
2022-11-19T11:54:58.873Z,9.13
2022-11-19T11:57:33.806Z,9.14
2022-11-19T12:00:31.116Z,9.24
2022-11-19T12:03:08.516Z,9.18
2022-11-19T12:05:51.187Z,9.16
2022-11-19T12:08:42.156Z,9.07
2022-11-19T12:11:28.647Z,9.16
2022-11-19T12:14:11.890Z,9.26
2022-11-19T12:16:50.129Z,9.20
2022-11-19T12:19:52.279Z,9.14
2022-11-19T12:22:42.103Z,9.15
2022-11-19T12:25:31.662Z,9.13
2022-11-19T12:31:40.113Z,9.10
2022-11-19T12:34:39.859Z,9.22
2022-11-19T12:37:35.609Z,9.10
2022-11-19T12:40:38.949Z,9.10
2022-11-19T12:43:45.284Z,9.17
2022-11-19T12:46:27.876Z,9.05
2022-11-19T12:49:22.509Z,9.18
2022-11-19T12:52:04.312Z,9.14
2022-11-19T12:54:53.511Z,9.28
2022-11-19T12:57:42.088Z,9.25
2022-11-19T13:00:21.707Z,9.22
2022-11-19T13:03:03.731Z,9.24
2022-11-19T13:05:44.695Z,9.21
2022-11-19T13:08:23.227Z,9.22
2022-11-19T13:11:06.510Z,9.21
2022-11-19T13:13:42.323Z,9.17
2022-11-19T13:16:19.310Z,9.15
2022-11-19T13:18:54.919Z,9.13
2022-11-19T13:21:33.318Z,9.13
2022-11-19T13:24:18.513Z,9.17
2022-11-19T13:26:51.944Z,9.11
2022-11-19T13:29:35.276Z,9.03
2022-11-19T13:32:18.853Z,9.11
2022-11-19T13:35:02.637Z,9.02
2022-11-19T13:37:46.496Z,8.98
2022-11-19T13:40:24.194Z,8.99
2022-11-19T13:43:31.517Z,8.93
2022-11-19T13:46:16.470Z,8.90
2022-11-19T13:48:57.522Z,8.89
2022-11-19T13:51:34.061Z,9.02
2022-11-19T13:54:10.640Z,8.99
2022-11-19T13:56:48.186Z,9.03
2022-11-19T13:59:27.595Z,8.93
2022-11-19T14:02:13.835Z,8.99
2022-11-19T14:05:02.690Z,8.88
2022-11-19T14:08:01.172Z,8.89
2022-11-19T14:10:39.216Z,8.93
2022-11-19T14:13:35.782Z,8.86
2022-11-19T14:16:36.546Z,8.97
2022-11-19T14:19:33.454Z,8.88
2022-11-19T14:22:52.579Z,8.89
2022-11-19T14:26:03.389Z,8.93
2022-11-19T14:28:45.264Z,8.92
2022-11-19T14:31:20.123Z,8.88
2022-11-19T14:34:04.250Z,8.85
2022-11-19T14:36:44.618Z,8.79
2022-11-19T14:39:26.335Z,8.86
2022-11-19T14:42:14.988Z,8.74
2022-11-19T14:45:08.352Z,8.78
2022-11-19T14:47:42.239Z,8.83
2022-11-19T14:50:26.988Z,8.89
2022-11-19T14:53:02.180Z,8.89
2022-11-19T14:55:40.985Z,8.83
2022-11-19T14:58:23.283Z,8.79
2022-11-19T15:01:09.695Z,8.85
2022-11-19T15:03:49.539Z,8.71
2022-11-19T15:06:28.217Z,8.74
2022-11-19T15:09:06.907Z,8.84
2022-11-19T15:12:05.975Z,8.85
2022-11-19T15:15:08.281Z,8.84
2022-11-19T15:17:42.570Z,8.82
2022-11-19T15:20:27.744Z,8.91
2022-11-19T15:23:10.073Z,8.75
2022-11-19T15:26:06.810Z,8.80
2022-11-19T15:29:12.425Z,8.74
2022-11-19T15:32:14.862Z,8.67
2022-11-19T15:35:11.723Z,8.67
2022-11-19T15:37:55.833Z,8.79
2022-11-19T15:40:37.180Z,8.71
2022-11-19T15:43:20.685Z,8.70
2022-11-19T15:45:56.766Z,8.73
2022-11-19T15:48:38.293Z,8.70
2022-11-19T15:51:15.834Z,8.68
2022-11-19T15:54:05.318Z,8.62
2022-11-19T15:56:41.072Z,8.64
2022-11-19T15:59:18.765Z,8.57
2022-11-19T16:02:15.930Z,8.62
2022-11-19T16:04:54.238Z,8.47
2022-11-19T16:07:34.519Z,8.51
2022-11-19T16:10:20.707Z,8.48
2022-11-19T16:16:39.435Z,8.47
2022-11-19T16:19:16.464Z,8.51
2022-11-19T16:21:54.164Z,8.52
2022-11-19T16:24:45.951Z,8.53
2022-11-19T16:27:25.405Z,8.56
2022-11-19T16:29:59.940Z,8.52
2022-11-19T16:32:35.487Z,8.55
2022-11-19T16:35:26.608Z,8.64
2022-11-19T16:38:01.869Z,8.57
2022-11-19T16:40:57.793Z,8.54
2022-11-19T16:43:41.279Z,8.63
2022-11-19T16:46:24.634Z,8.55
2022-11-19T16:49:00.632Z,8.58
2022-11-19T16:51:42.688Z,8.50
2022-11-19T16:54:49.195Z,8.42
2022-11-19T16:57:30.327Z,8.41
2022-11-19T17:00:12.791Z,8.49
2022-11-19T17:02:46.886Z,8.45
2022-11-19T17:05:29.946Z,8.48
2022-11-19T17:08:10.008Z,8.46
2022-11-19T17:10:43.419Z,8.39
2022-11-19T17:13:36.882Z,8.36
2022-11-19T17:16:23.895Z,8.39
2022-11-19T17:19:16.750Z,8.36
2022-11-19T17:22:17.574Z,8.34
2022-11-19T17:24:52.621Z,8.24
2022-11-19T17:27:39.309Z,8.30
2022-11-19T17:30:27.256Z,8.36
2022-11-19T17:33:05.198Z,8.30
2022-11-19T17:35:45.777Z,8.30
2022-11-19T17:38:20.790Z,8.27
2022-11-19T17:40:59.027Z,8.24
2022-11-19T17:43:54.136Z,8.30
2022-11-19T17:46:30.353Z,8.46
2022-11-19T17:49:04.861Z,8.39
2022-11-19T17:51:38.155Z,8.37
2022-11-19T17:54:14.619Z,8.22
2022-11-19T17:56:50.545Z,8.15
2022-11-19T17:59:28.829Z,8.13
2022-11-19T18:02:07.583Z,8.11
2022-11-19T18:04:43.277Z,8.18
2022-11-19T18:07:25.450Z,8.20
2022-11-19T18:10:03.405Z,8.11
2022-11-19T18:12:43.443Z,8.20
2022-11-19T18:15:21.660Z,8.12
2022-11-19T18:17:55.481Z,8.16
2022-11-19T18:20:31.653Z,8.13
2022-11-19T18:23:06.451Z,8.17
2022-11-19T18:28:30.664Z,8.30
2022-11-19T18:31:03.827Z,8.19
2022-11-19T18:33:42.153Z,8.26
2022-11-19T18:36:23.342Z,8.21
2022-11-19T18:39:21.861Z,8.10
2022-11-19T18:41:57.460Z,8.13
2022-11-19T18:44:36.093Z,8.19
2022-11-19T18:47:16.959Z,8.17
2022-11-19T18:49:53.516Z,8.20
2022-11-19T18:52:29.335Z,8.08
2022-11-19T18:55:05.674Z,8.10
2022-11-19T18:57:43.822Z,8.09
2022-11-19T19:00:23.757Z,8.11
2022-11-19T19:02:56.666Z,8.15
2022-11-19T19:05:29.755Z,8.16
2022-11-19T19:08:05.283Z,8.20
2022-11-19T19:10:53.316Z,8.15
2022-11-19T19:13:26.859Z,8.20
2022-11-19T19:16:10.882Z,8.16
2022-11-19T19:18:54.628Z,8.09
2022-11-19T19:21:28.949Z,8.14
2022-11-19T19:24:12.674Z,8.11
2022-11-19T19:26:48.239Z,8.07
2022-11-19T19:29:21.729Z,7.98
2022-11-19T19:32:00.587Z,7.94
2022-11-19T19:34:39.777Z,7.99
2022-11-19T19:37:17.628Z,8.03
2022-11-19T19:40:03.585Z,7.99
2022-11-19T19:42:41.534Z,7.99
2022-11-19T19:45:19.786Z,7.98
2022-11-19T19:47:55.455Z,7.95
2022-11-19T19:50:33.229Z,7.90
2022-11-19T19:53:11.528Z,7.90
2022-11-19T19:55:54.796Z,7.89
2022-11-19T19:58:43.747Z,7.86
2022-11-19T20:01:25.533Z,7.84
2022-11-19T20:04:25.014Z,7.80
2022-11-19T20:07:00.729Z,7.73
2022-11-19T20:09:40.608Z,7.70
2022-11-19T20:12:22.180Z,7.67
2022-11-19T20:14:56.573Z,7.70
2022-11-19T20:17:32.108Z,7.70
2022-11-19T20:20:11.047Z,7.70
2022-11-19T20:22:47.760Z,7.72
2022-11-19T20:25:20.770Z,7.84
2022-11-19T20:27:56.582Z,7.67
2022-11-19T20:30:29.756Z,7.77
2022-11-19T20:33:07.166Z,7.68
2022-11-19T20:35:51.764Z,7.62
2022-11-19T20:38:27.704Z,7.65
2022-11-19T20:41:02.747Z,7.56
2022-11-19T20:43:56.166Z,7.54
2022-11-19T20:46:30.009Z,7.48
2022-11-19T20:49:02.910Z,7.44
2022-11-19T20:51:38.037Z,7.50
2022-11-19T20:54:11.198Z,7.46
2022-11-19T20:56:56.261Z,7.38
2022-11-19T20:59:31.584Z,7.36
2022-11-19T21:02:04.812Z,7.32
2022-11-19T21:04:37.810Z,7.33
2022-11-19T21:07:12.045Z,7.30
2022-11-19T21:09:44.821Z,7.26
2022-11-19T21:12:18.015Z,7.25
2022-11-19T21:14:53.108Z,7.34
2022-11-19T21:17:26.331Z,7.32
2022-11-19T21:19:59.039Z,7.30
2022-11-19T21:22:33.357Z,7.29
2022-11-19T21:25:12.251Z,7.29
2022-11-19T21:27:45.736Z,7.28
2022-11-19T21:30:20.193Z,7.17
2022-11-19T21:32:53.419Z,7.17
2022-11-19T21:35:27.062Z,7.19
2022-11-19T21:38:01.277Z,7.16
2022-11-19T21:40:38.576Z,7.21
2022-11-19T21:43:11.399Z,7.11
2022-11-19T21:45:44.133Z,7.04
2022-11-19T21:48:18.031Z,7.06
2022-11-19T21:50:51.199Z,7.11
2022-11-19T21:53:25.483Z,7.08
2022-11-19T21:55:58.377Z,7.01
2022-11-19T21:58:31.525Z,7.04
2022-11-19T22:01:05.784Z,7.01
2022-11-19T22:03:38.671Z,6.99
2022-11-19T22:06:13.203Z,7.06
2022-11-19T22:08:47.412Z,7.09
2022-11-19T22:11:32.401Z,6.98
2022-11-19T22:14:07.391Z,6.86
2022-11-19T22:16:41.176Z,6.85
2022-11-19T22:19:15.336Z,6.96
2022-11-19T22:21:48.142Z,7.00
2022-11-19T22:24:22.389Z,6.95
2022-11-19T22:26:55.084Z,6.97
2022-11-19T22:29:28.304Z,6.97
2022-11-19T22:32:01.147Z,6.86
2022-11-19T22:34:34.330Z,6.85
2022-11-19T22:37:07.940Z,6.90
2022-11-19T22:39:43.833Z,6.85
2022-11-19T22:42:16.576Z,6.89
2022-11-19T22:44:49.485Z,6.81
2022-11-19T22:47:22.340Z,6.86
2022-11-19T22:49:55.674Z,6.88
2022-11-19T22:52:28.393Z,6.91
2022-11-19T22:55:02.521Z,6.83
2022-11-19T22:57:35.277Z,6.78
2022-11-19T23:00:13.079Z,6.84
2022-11-19T23:02:45.882Z,6.78
2022-11-19T23:05:18.806Z,6.74
2022-11-19T23:07:57.337Z,6.72
2022-11-19T23:10:33.030Z,6.68
2022-11-19T23:13:32.219Z,6.66
2022-11-19T23:16:08.077Z,6.65
2022-11-19T23:18:43.324Z,6.68
2022-11-19T23:21:18.411Z,6.61
2022-11-19T23:23:51.484Z,6.71
2022-11-19T23:26:28.016Z,6.65
2022-11-19T23:29:00.764Z,6.62
2022-11-19T23:31:35.409Z,6.57
2022-11-19T23:34:08.651Z,6.57
2022-11-19T23:36:42.114Z,6.51
2022-11-19T23:39:16.897Z,6.46
2022-11-19T23:41:51.164Z,6.53
2022-11-19T23:44:23.890Z,6.50
2022-11-19T23:46:56.778Z,6.51
2022-11-19T23:49:29.559Z,6.49
2022-11-19T23:52:02.575Z,6.43
2022-11-19T23:54:35.191Z,6.38
2022-11-19T23:57:09.648Z,6.37
2022-11-19T23:59:43.908Z,6.34
